Triumph — WDC9555 — position and weather

sailwx.info

Track history (hours):
 
Tides and Currents Weather Stations Pressure Air Temp Water Temp Dewpoint Dewpoint Depression Visibility Wind Speed Wind Dir Waves Ship Positions

Triumph

Owner: WESTERN TOWBOAT CO, SEATTLE, WA. More information available from US FCC via Universal Licensing System and Coast Guard Vessel Documentation Center.

Last reported at 2015-Jan-31 00:56 UTC. Time now 2015-Feb-01 07:17 UTC.
Position N 47°39' W 122°22'.

Length 24 m; draft 3 m.

Type: Tow > 200 m length. MMSI: 367103880.

Date/timePositionNaut miles runAvg speedWind from/ knotsBaromVisibWave heightAir tempDewpointWater temp
2015-Jan-31 00:56N 47°39' W 122°22'1 4.3
2015-Jan-31 00:36N 47°40' W 122°24'0 0.0
2015-Jan-31 00:34N 47°40' W 122°24'5 4.6
2015-Jan-30 23:33N 47°35' W 122°22'0 0.3
2015-Jan-30 23:31N 47°35' W 122°22'4 4.0
2015-Jan-30 22:33N 47°38' W 122°26'0 6.9
2015-Jan-30 22:31N 47°38' W 122°27'7 6.9
2015-Jan-30 21:33N 47°45' W 122°27'0 7.2
2015-Jan-30 21:31N 47°45' W 122°27'7 7.0
2015-Jan-30 20:33N 47°52' W 122°29'0 6.4
2015-Jan-30 20:31N 47°52' W 122°29'6 6.7
2015-Jan-30 19:33N 47°57' W 122°35'7 7.2
2015-Jan-30 18:33N 48°04' W 122°40'7 7.5
2015-Jan-30 17:34N 48°10' W 122°46'1 8.1
2015-Jan-30 17:28N 48°10' W 122°46'14 7.2
2015-Jan-30 15:31N 48°24' W 122°45'7 7.5
2015-Jan-30 14:33N 48°32' W 122°45'8 7.6
2015-Jan-30 13:34N 48°39' W 122°44'6 6.8
2015-Jan-30 12:40N 48°45' W 122°48'1 7.9
2015-Jan-30 12:34N 48°45' W 122°49'7 7.4
2015-Jan-30 11:40N 48°49' W 122°57'1 6.7
2015-Jan-30 11:33N 48°49' W 122°58'2 7.0
2015-Jan-30 11:19N 48°50' W 122°60'6 7.4
2015-Jan-30 10:34N 48°54' W 123°07'7 7.3
2015-Jan-30 09:33N 48°59' W 123°15'7 7.2
2015-Jan-30 08:33N 49°03' W 123°23'7 7.1
2015-Jan-30 07:33N 49°09' W 123°28'7 7.4
2015-Jan-30 06:33N 49°16' W 123°35'7 7.0
2015-Jan-30 05:33N 49°22' W 123°40'7 6.9
2015-Jan-30 04:33N 49°28' W 123°45'0 0.2
2015-Jan-30 03:29N 49°28' W 123°45'0 0.1
2015-Jan-30 02:33N 49°28' W 123°45'1 1.5
2015-Jan-30 01:33N 49°27' W 123°45'0 0.4
2015-Jan-30 00:31N 49°27' W 123°44'1 0.9
2015-Jan-29 23:30N 49°28' W 123°45'5 5.5
2015-Jan-29 22:33N 49°23' W 123°41'5 5.5
2015-Jan-29 21:33N 49°18' W 123°37'6 5.6
2015-Jan-29 20:33N 49°14' W 123°31'6 5.7
2015-Jan-29 19:33N 49°09' W 123°26'7 6.7
2015-Jan-29 18:34N 49°04' W 123°20'8 7.7
2015-Jan-29 17:34N 48°58' W 123°12'8 7.8
2015-Jan-29 16:33N 48°53' W 123°03'8 8.1
2015-Jan-29 15:33N 48°48' W 122°54'8 8.4
2015-Jan-29 14:33N 48°43' W 122°44'8 7.6
2015-Jan-29 13:33N 48°35' W 122°45'6 8.3
2015-Jan-29 12:48N 48°29' W 122°44'2 8.4
2015-Jan-29 12:33N 48°27' W 122°44'10 8.8
2015-Jan-29 11:26N 48°17' W 122°47'7 7.3
2015-Jan-29 10:29N 48°11' W 122°45'8 8.6
2015-Jan-29 09:33N 48°04' W 122°38'7 8.5
2015-Jan-29 08:45N 47°58' W 122°34'2 8.5
2015-Jan-29 08:33N 47°57' W 122°31'1 8.8
2015-Jan-29 08:26N 47°56' W 122°30'7 8.2
2015-Jan-29 07:33N 47°50' W 122°27'1 8.1
2015-Jan-29 07:25N 47°49' W 122°26'3 7.9
2015-Jan-29 07:00N 47°45' W 122°26'3 7.6
2015-Jan-29 06:33N 47°42' W 122°27'8 7.6
2015-Jan-29 05:33N 47°35' W 122°22'0 7.0
2015-Jan-29 05:30N 47°35' W 122°22'1 0.9
2015-Jan-29 04:33N 47°34' W 122°21'0 0.0
2015-Jan-29 04:30N 47°34' W 122°21'1 0.9
2015-Jan-29 03:33N 47°33' W 122°21'0 0.3
2015-Jan-29 03:30N 47°33' W 122°21'3 3.2
2015-Jan-29 02:34N 47°36' W 122°22'0 4.8
2015-Jan-29 02:29N 47°36' W 122°23'6 6.4
2015-Jan-29 01:34N 47°41' W 122°28'0 7.0
2015-Jan-29 01:29N 47°41' W 122°28'6 6.9
2015-Jan-29 00:33N 47°48' W 122°28'0 7.1
2015-Jan-29 00:29N 47°48' W 122°28'6 6.4
2015-Jan-28 23:33N 47°54' W 122°30'1 5.2
2015-Jan-28 23:24N 47°55' W 122°30'4 4.5
2015-Jan-28 22:32N 47°57' W 122°35'4 4.4
2015-Jan-28 21:31N 48°01' W 122°38'6 5.1
2015-Jan-28 20:25N 48°06' W 122°41'5 5.6
2015-Jan-28 19:32N 48°10' W 122°46'8 6.9
2015-Jan-28 18:18N 48°18' W 122°47'5 6.7
2015-Jan-28 17:32N 48°23' W 122°45'6 6.2
2015-Jan-28 16:35N 48°29' W 122°45'0 6.0
2015-Jan-28 16:32N 48°29' W 122°45'6 6.1
2015-Jan-28 15:33N 48°35' W 122°45'1 6.3
2015-Jan-28 15:20N 48°37' W 122°45'5 6.3
2015-Jan-28 14:33N 48°42' W 122°44'7 6.8
2015-Jan-28 13:35N 48°47' W 122°51'0 6.9
2015-Jan-28 13:31N 48°47' W 122°52'1 7.0
2015-Jan-28 13:20N 48°48' W 122°53'5 7.1
2015-Jan-28 12:33N 48°51' W 123°00'8 7.8
2015-Jan-28 11:34N 48°55' W 123°10'8 7.7
2015-Jan-28 10:34N 49°01' W 123°18'6 5.9
2015-Jan-28 09:34N 49°06' W 123°18'5 4.7
2015-Jan-28 08:33N 49°07' W 123°11'5 5.1
2015-Jan-28 07:33N 49°08' W 123°03'1 0.9
2015-Jan-28 06:34N 49°09' W 123°02'0 0.0
2015-Jan-28 05:33N 49°09' W 123°02'0 0.0
2015-Jan-28 04:33N 49°09' W 123°02'0 0.0
2015-Jan-28 03:34N 49°09' W 123°02'0 0.0
2015-Jan-28 02:34N 49°09' W 123°02'0 0.0
2015-Jan-28 01:34N 49°09' W 123°02'0 0.0
2015-Jan-28 00:34N 49°09' W 123°02'0 0.0
2015-Jan-27 23:33N 49°09' W 123°02'0 0.0
2015-Jan-27 22:34N 49°09' W 123°02'0 0.0
2015-Jan-27 21:34N 49°09' W 123°02'0 0.0
2015-Jan-27 20:34N 49°09' W 123°02'0 0.0
2015-Jan-27 19:34N 49°09' W 123°02'0 0.0
2015-Jan-27 18:34N 49°09' W 123°02'0 0.0
2015-Jan-27 17:34N 49°09' W 123°02'0 0.0
2015-Jan-27 16:34N 49°09' W 123°02'0 0.0
2015-Jan-27 15:33N 49°09' W 123°02'0 0.0
2015-Jan-27 14:34N 49°09' W 123°02'0 0.0
2015-Jan-27 13:33N 49°09' W 123°02'0 0.0
2015-Jan-27 12:33N 49°09' W 123°02'0 0.0
2015-Jan-27 11:33N 49°09' W 123°02'0 0.0
2015-Jan-27 10:33N 49°09' W 123°02'6 5.6
2015-Jan-27 09:34N 49°07' W 123°10'6 5.7
2015-Jan-27 08:34N 49°06' W 123°18'6 6.0
2015-Jan-27 07:33N 49°01' W 123°14'8 8.2
2015-Jan-27 06:33N 48°55' W 123°05'3 9.8
2015-Jan-27 06:16N 48°53' W 123°02'7 9.2
2015-Jan-27 05:33N 48°49' W 122°54'9 9.2
2015-Jan-27 04:33N 48°43' W 122°44'8 9.4
2015-Jan-27 03:45N 48°35' W 122°45'210.2
2015-Jan-27 03:33N 48°33' W 122°45'12 9.0
2015-Jan-27 02:14N 48°21' W 122°45'15 7.3
2015-Jan-27 00:12N 48°07' W 122°39'610.2
2015-Jan-26 23:34N 48°01' W 122°36'011.9
2015-Jan-26 23:33N 48°01' W 122°36'310.8
2015-Jan-26 23:15N 47°58' W 122°34'7 9.5
2015-Jan-26 22:33N 47°53' W 122°28'1 9.6
2015-Jan-26 22:30N 47°52' W 122°28'9 9.4
2015-Jan-26 21:33N 47°43' W 122°26'1 9.7
2015-Jan-26 21:30N 47°43' W 122°26'8 8.5
2015-Jan-26 20:33N 47°35' W 122°22'0 7.8
2015-Jan-26 20:30N 47°35' W 122°22'1 0.0
2015-Jan-24 16:47N 47°34' W 122°21'0 0.5
2015-Jan-24 16:33N 47°34' W 122°21'0 6.4
2015-Jan-24 16:32N 47°34' W 122°21'3 3.4
2015-Jan-24 15:33N 47°37' W 122°24'1 6.5
2015-Jan-24 15:27N 47°37' W 122°25'6 6.2
2015-Jan-24 14:33N 47°42' W 122°28'0 6.6
2015-Jan-24 14:31N 47°43' W 122°28'6 6.4
2015-Jan-24 13:33N 47°49' W 122°28'0 6.4
2015-Jan-24 13:31N 47°49' W 122°28'6 6.3
2015-Jan-24 12:33N 47°55' W 122°30'1 7.5
2015-Jan-24 12:26N 47°56' W 122°31'6 7.3
2015-Jan-24 11:33N 48°00' W 122°38'7 7.1
2015-Jan-24 10:32N 48°07' W 122°42'7 6.9
2015-Jan-24 09:33N 48°12' W 122°48'7 7.1
2015-Jan-24 08:32N 48°20' W 122°47'8 8.7
2015-Jan-24 07:33N 48°28' W 122°45'1010.2
2015-Jan-24 06:33N 48°38' W 122°44'8 7.7
2015-Jan-24 05:33N 48°45' W 122°49'8 7.4
2015-Jan-24 04:32N 48°50' W 122°58'8 7.8
2015-Jan-24 03:34N 48°54' W 123°08'7 7.0
2015-Jan-24 02:33N 48°59' W 123°16'6 6.3
2015-Jan-24 01:33N 49°03' W 123°22'6 5.9
2015-Jan-24 00:33N 49°08' W 123°27'6 5.8
2015-Jan-23 23:33N 49°13' W 123°32'6 5.8
2015-Jan-23 22:31N 49°18' W 123°37'6 6.4
2015-Jan-23 21:33N 49°23' W 123°42'5 5.1
2015-Jan-23 20:33N 49°28' W 123°45'0 0.1
2015-Jan-23 19:33N 49°28' W 123°45'0 0.0
2015-Jan-23 18:33N 49°28' W 123°45'1 1.2
2015-Jan-23 17:33N 49°27' W 123°45'5 4.6
2015-Jan-23 16:33N 49°23' W 123°42'5 5.2
2015-Jan-23 15:33N 49°19' W 123°37'6 6.2
2015-Jan-23 14:34N 49°14' W 123°31'7 7.4
2015-Jan-23 13:34N 49°08' W 123°25'10 9.5
2015-Jan-23 12:34N 49°01' W 123°15'10 9.6
2015-Jan-23 11:33N 48°55' W 123°04'8 8.8
2015-Jan-23 10:39N 48°49' W 122°55'1 8.3
2015-Jan-23 10:32N 48°49' W 122°54'0 9.4
2015-Jan-23 10:29N 48°48' W 122°53'8 8.5
2015-Jan-23 09:33N 48°43' W 122°44'4 7.8
2015-Jan-23 09:01N 48°39' W 122°43'3 7.1
2015-Jan-23 08:34N 48°36' W 122°45'6 6.4
2015-Jan-23 07:33N 48°30' W 122°44'33 8.2
2015-Jan-23 03:32N 47°57' W 122°33'012.2
2015-Jan-23 03:31N 47°57' W 122°33'9 9.2
2015-Jan-23 02:33N 47°50' W 122°27'1 9.2
2015-Jan-23 02:29N 47°49' W 122°27'8 8.7
2015-Jan-23 01:34N 47°41' W 122°27'013.2
2015-Jan-23 01:33N 47°41' W 122°27'7 7.3
2015-Jan-23 00:34N 47°34' W 122°21'0 5.0
2015-Jan-23 00:33N 47°34' W 122°21'1 0.5
2015-Jan-22 23:34N 47°34' W 122°21'0 0.0
2015-Jan-22 23:34N 47°34' W 122°21'0 0.0
2015-Jan-22 22:33N 47°34' W 122°21'0 0.0
2015-Jan-22 22:33N 47°34' W 122°21'  
Track history (hours):
 
Tides and Currents Weather Stations Pressure Air Temp Water Temp Dewpoint Dewpoint Depression Visibility Wind Speed Wind Dir Waves Ship Positions

Triumph

Owner: WESTERN TOWBOAT CO, SEATTLE, WA. More information available from US FCC via Universal Licensing System and Coast Guard Vessel Documentation Center.

Last reported at 2015-Jan-31 00:56 UTC. Time now 2015-Feb-01 07:17 UTC.
Position N 47°39' W 122°22'.

Length 24 m; draft 3 m.

Type: Tow > 200 m length. MMSI: 367103880.

Date/timePositionNaut miles runAvg speedWind from/ knotsBaromVisibWave heightAir tempDewpointWater temp
2015-Jan-31 00:56N 47°39' W 122°22'1 4.3
2015-Jan-31 00:36N 47°40' W 122°24'0 0.0
2015-Jan-31 00:34N 47°40' W 122°24'5 4.6
2015-Jan-30 23:33N 47°35' W 122°22'0 0.3
2015-Jan-30 23:31N 47°35' W 122°22'4 4.0
2015-Jan-30 22:33N 47°38' W 122°26'0 6.9
2015-Jan-30 22:31N 47°38' W 122°27'7 6.9
2015-Jan-30 21:33N 47°45' W 122°27'0 7.2
2015-Jan-30 21:31N 47°45' W 122°27'7 7.0
2015-Jan-30 20:33N 47°52' W 122°29'0 6.4
2015-Jan-30 20:31N 47°52' W 122°29'6 6.7
2015-Jan-30 19:33N 47°57' W 122°35'7 7.2
2015-Jan-30 18:33N 48°04' W 122°40'7 7.5
2015-Jan-30 17:34N 48°10' W 122°46'1 8.1
2015-Jan-30 17:28N 48°10' W 122°46'14 7.2
2015-Jan-30 15:31N 48°24' W 122°45'7 7.5
2015-Jan-30 14:33N 48°32' W 122°45'8 7.6
2015-Jan-30 13:34N 48°39' W 122°44'6 6.8
2015-Jan-30 12:40N 48°45' W 122°48'1 7.9
2015-Jan-30 12:34N 48°45' W 122°49'7 7.4
2015-Jan-30 11:40N 48°49' W 122°57'1 6.7
2015-Jan-30 11:33N 48°49' W 122°58'2 7.0
2015-Jan-30 11:19N 48°50' W 122°60'6 7.4
2015-Jan-30 10:34N 48°54' W 123°07'7 7.3
2015-Jan-30 09:33N 48°59' W 123°15'7 7.2
2015-Jan-30 08:33N 49°03' W 123°23'7 7.1
2015-Jan-30 07:33N 49°09' W 123°28'7 7.4
2015-Jan-30 06:33N 49°16' W 123°35'7 7.0
2015-Jan-30 05:33N 49°22' W 123°40'7 6.9
2015-Jan-30 04:33N 49°28' W 123°45'0 0.2
2015-Jan-30 03:29N 49°28' W 123°45'0 0.1
2015-Jan-30 02:33N 49°28' W 123°45'1 1.5
2015-Jan-30 01:33N 49°27' W 123°45'0 0.4
2015-Jan-30 00:31N 49°27' W 123°44'1 0.9
2015-Jan-29 23:30N 49°28' W 123°45'5 5.5
2015-Jan-29 22:33N 49°23' W 123°41'5 5.5
2015-Jan-29 21:33N 49°18' W 123°37'6 5.6
2015-Jan-29 20:33N 49°14' W 123°31'6 5.7
2015-Jan-29 19:33N 49°09' W 123°26'7 6.7
2015-Jan-29 18:34N 49°04' W 123°20'8 7.7
2015-Jan-29 17:34N 48°58' W 123°12'8 7.8
2015-Jan-29 16:33N 48°53' W 123°03'8 8.1
2015-Jan-29 15:33N 48°48' W 122°54'8 8.4
2015-Jan-29 14:33N 48°43' W 122°44'8 7.6
2015-Jan-29 13:33N 48°35' W 122°45'6 8.3
2015-Jan-29 12:48N 48°29' W 122°44'2 8.4
2015-Jan-29 12:33N 48°27' W 122°44'10 8.8
2015-Jan-29 11:26N 48°17' W 122°47'7 7.3
2015-Jan-29 10:29N 48°11' W 122°45'8 8.6
2015-Jan-29 09:33N 48°04' W 122°38'7 8.5
2015-Jan-29 08:45N 47°58' W 122°34'2 8.5
2015-Jan-29 08:33N 47°57' W 122°31'1 8.8
2015-Jan-29 08:26N 47°56' W 122°30'7 8.2
2015-Jan-29 07:33N 47°50' W 122°27'1 8.1
2015-Jan-29 07:25N 47°49' W 122°26'3 7.9
2015-Jan-29 07:00N 47°45' W 122°26'3 7.6
2015-Jan-29 06:33N 47°42' W 122°27'8 7.6
2015-Jan-29 05:33N 47°35' W 122°22'0 7.0
2015-Jan-29 05:30N 47°35' W 122°22'1 0.9
2015-Jan-29 04:33N 47°34' W 122°21'0 0.0
2015-Jan-29 04:30N 47°34' W 122°21'1 0.9
2015-Jan-29 03:33N 47°33' W 122°21'0 0.3
2015-Jan-29 03:30N 47°33' W 122°21'3 3.2
2015-Jan-29 02:34N 47°36' W 122°22'0 4.8
2015-Jan-29 02:29N 47°36' W 122°23'6 6.4
2015-Jan-29 01:34N 47°41' W 122°28'0 7.0
2015-Jan-29 01:29N 47°41' W 122°28'6 6.9
2015-Jan-29 00:33N 47°48' W 122°28'0 7.1
2015-Jan-29 00:29N 47°48' W 122°28'6 6.4
2015-Jan-28 23:33N 47°54' W 122°30'1 5.2
2015-Jan-28 23:24N 47°55' W 122°30'4 4.5
2015-Jan-28 22:32N 47°57' W 122°35'4 4.4
2015-Jan-28 21:31N 48°01' W 122°38'6 5.1
2015-Jan-28 20:25N 48°06' W 122°41'5 5.6
2015-Jan-28 19:32N 48°10' W 122°46'8 6.9
2015-Jan-28 18:18N 48°18' W 122°47'5 6.7
2015-Jan-28 17:32N 48°23' W 122°45'6 6.2
2015-Jan-28 16:35N 48°29' W 122°45'0 6.0
2015-Jan-28 16:32N 48°29' W 122°45'6 6.1
2015-Jan-28 15:33N 48°35' W 122°45'1 6.3
2015-Jan-28 15:20N 48°37' W 122°45'5 6.3
2015-Jan-28 14:33N 48°42' W 122°44'7 6.8
2015-Jan-28 13:35N 48°47' W 122°51'0 6.9
2015-Jan-28 13:31N 48°47' W 122°52'1 7.0
2015-Jan-28 13:20N 48°48' W 122°53'5 7.1
2015-Jan-28 12:33N 48°51' W 123°00'8 7.8
2015-Jan-28 11:34N 48°55' W 123°10'8 7.7
2015-Jan-28 10:34N 49°01' W 123°18'6 5.9
2015-Jan-28 09:34N 49°06' W 123°18'5 4.7
2015-Jan-28 08:33N 49°07' W 123°11'5 5.1
2015-Jan-28 07:33N 49°08' W 123°03'1 0.9
2015-Jan-28 06:34N 49°09' W 123°02'0 0.0
2015-Jan-28 05:33N 49°09' W 123°02'0 0.0
2015-Jan-28 04:33N 49°09' W 123°02'0 0.0
2015-Jan-28 03:34N 49°09' W 123°02'0 0.0
2015-Jan-28 02:34N 49°09' W 123°02'0 0.0
2015-Jan-28 01:34N 49°09' W 123°02'0 0.0
2015-Jan-28 00:34N 49°09' W 123°02'0 0.0
2015-Jan-27 23:33N 49°09' W 123°02'0 0.0
2015-Jan-27 22:34N 49°09' W 123°02'0 0.0
2015-Jan-27 21:34N 49°09' W 123°02'0 0.0
2015-Jan-27 20:34N 49°09' W 123°02'0 0.0
2015-Jan-27 19:34N 49°09' W 123°02'0 0.0
2015-Jan-27 18:34N 49°09' W 123°02'0 0.0
2015-Jan-27 17:34N 49°09' W 123°02'0 0.0
2015-Jan-27 16:34N 49°09' W 123°02'0 0.0
2015-Jan-27 15:33N 49°09' W 123°02'0 0.0
2015-Jan-27 14:34N 49°09' W 123°02'0 0.0
2015-Jan-27 13:33N 49°09' W 123°02'0 0.0
2015-Jan-27 12:33N 49°09' W 123°02'0 0.0
2015-Jan-27 11:33N 49°09' W 123°02'0 0.0
2015-Jan-27 10:33N 49°09' W 123°02'6 5.6
2015-Jan-27 09:34N 49°07' W 123°10'6 5.7
2015-Jan-27 08:34N 49°06' W 123°18'6 6.0
2015-Jan-27 07:33N 49°01' W 123°14'8 8.2
2015-Jan-27 06:33N 48°55' W 123°05'3 9.8
2015-Jan-27 06:16N 48°53' W 123°02'7 9.2
2015-Jan-27 05:33N 48°49' W 122°54'9 9.2
2015-Jan-27 04:33N 48°43' W 122°44'8 9.4
2015-Jan-27 03:45N 48°35' W 122°45'210.2
2015-Jan-27 03:33N 48°33' W 122°45'12 9.0
2015-Jan-27 02:14N 48°21' W 122°45'15 7.3
2015-Jan-27 00:12N 48°07' W 122°39'610.2
2015-Jan-26 23:34N 48°01' W 122°36'011.9
2015-Jan-26 23:33N 48°01' W 122°36'310.8
2015-Jan-26 23:15N 47°58' W 122°34'7 9.5
2015-Jan-26 22:33N 47°53' W 122°28'1 9.6
2015-Jan-26 22:30N 47°52' W 122°28'9 9.4
2015-Jan-26 21:33N 47°43' W 122°26'1 9.7
2015-Jan-26 21:30N 47°43' W 122°26'8 8.5
2015-Jan-26 20:33N 47°35' W 122°22'0 7.8
2015-Jan-26 20:30N 47°35' W 122°22'1 0.0
2015-Jan-24 16:47N 47°34' W 122°21'0 0.5
2015-Jan-24 16:33N 47°34' W 122°21'0 6.4
2015-Jan-24 16:32N 47°34' W 122°21'3 3.4
2015-Jan-24 15:33N 47°37' W 122°24'1 6.5
2015-Jan-24 15:27N 47°37' W 122°25'6 6.2
2015-Jan-24 14:33N 47°42' W 122°28'0 6.6
2015-Jan-24 14:31N 47°43' W 122°28'6 6.4
2015-Jan-24 13:33N 47°49' W 122°28'0 6.4
2015-Jan-24 13:31N 47°49' W 122°28'6 6.3
2015-Jan-24 12:33N 47°55' W 122°30'1 7.5
2015-Jan-24 12:26N 47°56' W 122°31'6 7.3
2015-Jan-24 11:33N 48°00' W 122°38'7 7.1
2015-Jan-24 10:32N 48°07' W 122°42'7 6.9
2015-Jan-24 09:33N 48°12' W 122°48'7 7.1
2015-Jan-24 08:32N 48°20' W 122°47'8 8.7
2015-Jan-24 07:33N 48°28' W 122°45'1010.2
2015-Jan-24 06:33N 48°38' W 122°44'8 7.7
2015-Jan-24 05:33N 48°45' W 122°49'8 7.4
2015-Jan-24 04:32N 48°50' W 122°58'8 7.8
2015-Jan-24 03:34N 48°54' W 123°08'7 7.0
2015-Jan-24 02:33N 48°59' W 123°16'6 6.3
2015-Jan-24 01:33N 49°03' W 123°22'6 5.9
2015-Jan-24 00:33N 49°08' W 123°27'6 5.8
2015-Jan-23 23:33N 49°13' W 123°32'6 5.8
2015-Jan-23 22:31N 49°18' W 123°37'6 6.4
2015-Jan-23 21:33N 49°23' W 123°42'5 5.1
2015-Jan-23 20:33N 49°28' W 123°45'0 0.1
2015-Jan-23 19:33N 49°28' W 123°45'0 0.0
2015-Jan-23 18:33N 49°28' W 123°45'1 1.2
2015-Jan-23 17:33N 49°27' W 123°45'5 4.6
2015-Jan-23 16:33N 49°23' W 123°42'5 5.2
2015-Jan-23 15:33N 49°19' W 123°37'6 6.2
2015-Jan-23 14:34N 49°14' W 123°31'7 7.4
2015-Jan-23 13:34N 49°08' W 123°25'10 9.5
2015-Jan-23 12:34N 49°01' W 123°15'10 9.6
2015-Jan-23 11:33N 48°55' W 123°04'8 8.8
2015-Jan-23 10:39N 48°49' W 122°55'1 8.3
2015-Jan-23 10:32N 48°49' W 122°54'0 9.4
2015-Jan-23 10:29N 48°48' W 122°53'8 8.5
2015-Jan-23 09:33N 48°43' W 122°44'4 7.8
2015-Jan-23 09:01N 48°39' W 122°43'3 7.1
2015-Jan-23 08:34N 48°36' W 122°45'6 6.4
2015-Jan-23 07:33N 48°30' W 122°44'33 8.2
2015-Jan-23 03:32N 47°57' W 122°33'012.2
2015-Jan-23 03:31N 47°57' W 122°33'9 9.2
2015-Jan-23 02:33N 47°50' W 122°27'1 9.2
2015-Jan-23 02:29N 47°49' W 122°27'8 8.7
2015-Jan-23 01:34N 47°41' W 122°27'013.2
2015-Jan-23 01:33N 47°41' W 122°27'7 7.3
2015-Jan-23 00:34N 47°34' W 122°21'0 5.0
2015-Jan-23 00:33N 47°34' W 122°21'1 0.5
2015-Jan-22 23:34N 47°34' W 122°21'0 0.0
2015-Jan-22 23:34N 47°34' W 122°21'0 0.0
2015-Jan-22 22:33N 47°34' W 122°21'0 0.0
2015-Jan-22 22:33N 47°34' W 122°21'  

Dump ship's entire track history